Hammonton, California
Current Conditions -  °F | °C
As of 10:58 AM on Friday 28 Nov 2014 (Local Time) from KBAB Reporting Station
Haze Haze  
Wind Chill: 54°   Ceiling: 19000
Heat Index: 54°   Visibility: 4mi
Dew Point: 50°   Wind: 3mph
Humidity: 86%   Direction: 200°SSW
Pressure: 30.01"   Gusts: NA
Location:  39.1912°N, 121.489°W
Report Text: KBAB 281858Z AUTO 20003KT 4SM HZ BKN190 12/10 A3001 RMK AO2 SLP239 T01230100 $
Loading
Personal Weather Stations






























Interactive Weather Map New forecast layout! Learn more

10-Day Weather Forecast

Advertisements
Track Severe Weather on mobile